Terminal Aerodrome Forecast
Issued by NWS Omaha/Valley, NE

Home | Current Version | Previous Version | Graphics & Text | Print | Product List | Glossary On
Versions: 1 2 3 4 5 6 7 8 9 10 11 12 13 14 15 16 17
000
FTUS43 KOAX 171720
TAFOFK
TAF
KOFK 171720Z 1718/1818 28006KT P6SM SKC
     FM172300 22004KT P6SM FEW200
     FM180700 20005KT 6SM BR FEW150
     FM181500 20006KT P6SM FEW090=

USA.gov is the U.S. government's official web portal to all federal, state and local government web resources and services.